Time;durP1;ratioP1;P1;durP2;ratioP2;P2;SDS_P1;SDS_P2;PMS_P1;PMS_P2;Temp;Humidity;BMP_temperature;BMP_pressure;BME280_temperature;BME280_humidity;BME280_pressure;Samples;Min_cycle;Max_cycle;Signal;HPM_P1;HPM_P2
2023/10/13 00:02:11;;;;;;;10.32;6.85;;;;;;;20.27;51.81;93573.84;5944139;24;20048;-90
2023/10/13 00:04:36;;;;;;;8.25;6.40;;;;;;;20.30;51.89;93583.78;5945253;24;20532;-90
2023/10/13 00:07:02;;;;;;;7.50;6.18;;;;;;;20.28;51.39;93584.31;5921701;24;20526;-91
2023/10/13 00:09:37;;;;;;;8.48;6.22;;;;;;;20.29;51.51;93582.31;5944374;24;20028;-91
2023/10/13 00:12:03;;;;;;;8.30;6.22;;;;;;;20.29;51.54;93579.56;5920370;24;20110;-90
2023/10/13 00:14:35;;;;;;;7.13;5.93;;;;;;;20.30;51.42;93583.78;5921755;24;20496;-91
2023/10/13 00:17:02;;;;;;;7.50;5.88;;;;;;;20.30;51.45;93597.50;5944497;24;20044;-90
2023/10/13 00:19:45;;;;;;;7.68;5.78;;;;;;;20.27;51.46;93580.06;5943647;24;20040;-90
2023/10/13 00:22:10;;;;;;;7.60;5.72;;;;;;;20.26;51.36;93573.09;5960793;23;20026;-91
2023/10/13 00:24:42;;;;;;;7.82;6.03;;;;;;;20.26;51.56;93573.09;5977372;23;20055;-90
2023/10/13 00:27:24;;;;;;;7.68;5.40;;;;;;;20.24;51.55;93570.13;5978012;23;20032;-90
2023/10/13 00:29:50;;;;;;;8.23;5.97;;;;;;;20.26;51.50;93564.13;5993781;23;20024;-91
2023/10/13 00:32:20;;;;;;;8.07;5.90;;;;;;;20.26;51.43;93564.88;6035878;23;20121;-90
2023/10/13 00:34:45;;;;;;;6.13;5.53;;;;;;;20.27;51.52;93562.88;6036912;23;20019;-91
2023/10/13 00:39:36;;;;;;;6.35;5.07;;;;;;;20.26;51.42;93551.13;6036957;23;20081;-91
2023/10/13 00:42:07;;;;;;;6.97;5.43;;;;;;;20.26;51.60;93562.13;6013644;23;20086;-91
2023/10/13 00:44:42;;;;;;;;;;;;;;;20.29;51.42;93563.84;6038628;23;20019;-90
2023/10/13 00:47:09;;;;;;;6.72;5.30;;;;;;;20.26;51.42;93567.59;6061565;23;19914;-90
2023/10/13 00:49:39;;;;;;;7.78;5.50;;;;;;;20.25;51.53;93565.38;6013687;23;20451;-90
2023/10/13 00:52:06;;;;;;;6.73;5.13;;;;;;;20.24;51.41;93561.91;6042377;23;20029;-90
2023/10/13 00:54:35;;;;;;;7.57;5.70;;;;;;;20.24;51.47;93559.16;6050593;23;20341;-90
2023/10/13 00:57:07;;;;;;;8.52;5.38;;;;;;;20.25;51.47;93566.13;6014585;23;20096;-90
2023/10/13 00:59:36;;;;;;;7.07;5.03;;;;;;;20.24;51.58;93563.91;6014693;23;20102;-90
2023/10/13 01:02:37;;;;;;;8.00;5.75;;;;;;;20.24;51.45;93561.91;6002547;23;20051;-90
2023/10/13 01:04:47;;;;;;;6.85;5.30;;;;;;;20.25;51.47;93562.63;6032554;23;20022;-90
2023/10/13 01:07:15;;;;;;;7.70;5.03;;;;;;;20.25;51.34;93562.63;6036745;23;20041;-90
2023/10/13 01:09:46;;;;;;;6.18;4.85;;;;;;;20.25;51.15;93557.16;6052030;23;20058;-89
2023/10/13 01:12:12;;;;;;;8.05;5.30;;;;;;;20.23;51.33;93563.16;6036865;23;20359;-90
2023/10/13 01:14:37;;;;;;;6.88;4.50;;;;;;;20.25;51.31;93568.88;6013917;23;20079;-91
2023/10/13 01:17:04;;;;;;;6.40;4.93;;;;;;;20.26;51.40;93561.38;6035826;23;20348;-90
2023/10/13 01:19:29;;;;;;;5.70;5.10;;;;;;;20.27;51.36;93565.59;6036500;23;20026;-90
2023/10/13 01:22:01;;;;;;;5.25;4.18;;;;;;;20.27;51.29;93555.38;6060861;23;20018;-90
2023/10/13 01:24:31;;;;;;;6.88;4.97;;;;;;;20.27;51.38;93549.13;6060441;23;20800;-91
2023/10/13 01:26:56;;;;;;;6.65;4.88;;;;;;;20.25;51.37;93554.41;6084182;23;20023;-90
2023/10/13 01:29:28;;;;;;;9.57;4.80;;;;;;;20.24;51.45;93550.91;6060099;23;20028;-90
2023/10/13 01:31:54;;;;;;;6.35;5.00;;;;;;;20.23;51.61;93546.69;6038049;23;20090;-90
2023/10/13 01:34:21;;;;;;;5.60;4.60;;;;;;;20.23;51.52;93552.16;6060672;23;20015;-90
2023/10/13 01:36:53;;;;;;;5.80;4.43;;;;;;;20.24;51.35;93561.16;6060440;23;20061;-91
2023/10/13 01:39:26;;;;;;;5.28;4.50;;;;;;;20.25;51.39;93557.16;6060109;23;20023;-90
2023/10/13 01:41:55;;;;;;;4.70;4.20;;;;;;;20.23;51.46;93551.44;6037245;23;20152;-90
2023/10/13 01:44:22;;;;;;;6.70;4.75;;;;;;;20.23;51.31;93557.66;6060672;23;20042;-90
2023/10/13 01:46:48;;;;;;;6.03;4.35;;;;;;;20.25;51.18;93555.16;6036472;23;20038;-91
2023/10/13 01:49:15;;;;;;;7.07;4.82;;;;;;;20.25;51.35;93552.41;6059728;23;20030;-90
2023/10/13 01:51:42;;;;;;;6.18;4.22;;;;;;;20.23;51.35;93554.91;6061065;23;20033;-90
2023/10/13 01:54:11;;;;;;;5.18;4.07;;;;;;;20.24;51.38;93547.44;6060598;23;20106;-90
2023/10/13 01:56:42;;;;;;;6.18;4.65;;;;;;;20.28;51.28;93553.38;6061733;23;20126;-90
2023/10/13 01:59:09;;;;;;;;;;;;;;;20.29;51.44;93546.63;6037757;23;20019;-91
2023/10/13 02:01:34;;;;;;;6.03;4.90;;;;;;;20.24;51.18;93545.41;6059492;23;20282;-91
2023/10/13 02:04:03;;;;;;;4.72;3.88;;;;;;;20.24;51.25;93539.19;6036618;23;20083;-90
2023/10/13 02:06:32;;;;;;;4.78;3.67;;;;;;;20.23;51.18;93541.19;6036385;23;20346;-90
2023/10/13 02:09:16;;;;;;;4.88;3.92;;;;;;;20.23;51.49;93543.19;6037050;23;20027;-91
2023/10/13 02:11:45;;;;;;;5.38;3.40;;;;;;;20.24;51.50;93555.66;6046885;23;20080;-90
2023/10/13 02:14:12;;;;;;;5.28;4.07;;;;;;;20.23;51.59;93557.66;6041563;23;20019;-90
2023/10/13 02:16:38;;;;;;;6.13;4.10;;;;;;;20.26;51.28;93555.88;6042083;23;20015;-91
2023/10/13 02:19:04;;;;;;;4.78;4.05;;;;;;;20.24;51.67;93555.66;6064535;23;20025;-90
2023/10/13 02:21:31;;;;;;;4.53;4.07;;;;;;;20.24;51.44;93561.16;6069217;23;20026;-91
2023/10/13 02:24:05;;;;;;;6.93;4.40;;;;;;;20.24;51.37;93558.41;6046603;23;20025;-90
2023/10/13 02:26:31;;;;;;;5.63;3.80;;;;;;;20.23;51.59;93563.16;6043347;23;20014;-90
2023/10/13 02:29:05;;;;;;;4.53;3.72;;;;;;;20.23;51.43;93557.66;6059089;23;20018;-90
2023/10/13 02:31:30;;;;;;;6.68;3.95;;;;;;;20.24;51.28;93550.91;6065982;23;20014;-89
2023/10/13 02:33:56;;;;;;;5.22;4.10;;;;;;;20.24;51.11;93559.16;6059166;23;20208;-90
2023/10/13 02:36:35;;;;;;;4.25;3.67;;;;;;;20.23;51.17;93552.16;6064628;23;20015;-90
2023/10/13 02:39:07;;;;;;;6.27;3.80;;;;;;;20.23;51.19;93563.16;6084241;23;20018;-90
2023/10/13 02:41:36;;;;;;;5.80;4.45;;;;;;;20.23;51.23;93562.41;6066072;23;20022;-90
2023/10/13 02:44:05;;;;;;;7.03;4.47;;;;;;;20.23;51.04;93568.66;6066064;23;20011;-90
2023/10/13 02:46:31;;;;;;;4.45;3.78;;;;;;;20.23;51.23;93568.66;6094573;23;20014;-90
2023/10/13 02:48:58;;;;;;;5.72;4.28;;;;;;;20.23;51.16;93568.66;6046581;23;20077;-90
2023/10/13 02:51:35;;;;;;;5.68;4.28;;;;;;;20.23;51.22;93574.13;6087480;23;20021;-91
2023/10/13 02:54:02;;;;;;;5.20;3.25;;;;;;;20.25;51.16;93568.13;6045247;23;20096;-91
2023/10/13 02:56:28;;;;;;;4.45;3.67;;;;;;;20.23;51.22;93565.91;6034862;23;20014;-91
2023/10/13 02:58:56;;;;;;;6.50;4.15;;;;;;;20.24;51.32;93564.63;6047217;23;20340;-90
2023/10/13 03:01:26;;;;;;;4.88;3.72;;;;;;;20.22;51.19;93574.66;6063336;23;20751;-90
2023/10/13 03:03:54;;;;;;;;;;;;;;;20.25;51.29;93573.63;6065922;23;20022;-90
2023/10/13 03:06:32;;;;;;;5.18;3.60;;;;;;;20.24;51.31;93572.88;6088543;23;19944;-92
2023/10/13 03:09:15;;;;;;;4.82;3.50;;;;;;;20.21;51.46;93568.41;6060971;23;20364;-91
2023/10/13 03:11:48;;;;;;;4.78;3.70;;;;;;;20.23;51.27;93559.66;6064406;23;20018;-90
2023/10/13 03:14:23;;;;;;;3.90;3.50;;;;;;;20.20;51.25;93564.19;6065546;23;20529;-91
2023/10/13 03:16:53;;;;;;;6.55;3.97;;;;;;;20.19;51.31;93554.47;6064495;23;20406;-91
2023/10/13 03:19:22;;;;;;;5.15;3.85;;;;;;;20.20;51.25;93553.22;6063708;23;20233;-90
2023/10/13 03:22:04;;;;;;;4.60;3.63;;;;;;;20.19;51.48;93557.22;6041071;23;20022;-90
2023/10/13 03:24:36;;;;;;;6.00;3.70;;;;;;;20.19;51.28;93560.69;6096696;23;20018;-89
2023/10/13 03:27:08;;;;;;;4.40;3.22;;;;;;;20.22;51.18;93574.66;6092697;23;20018;-90
2023/10/13 03:29:43;;;;;;;4.72;3.55;;;;;;;20.22;51.41;93575.41;6072195;23;20014;-90
2023/10/13 03:32:11;;;;;;;3.83;3.33;;;;;;;20.20;51.36;93564.94;6069495;23;20204;-90
2023/10/13 03:34:49;;;;;;;4.63;2.90;;;;;;;20.20;51.41;93569.69;6040782;23;20407;-90
2023/10/13 03:37:35;;;;;;;4.43;3.30;;;;;;;20.21;51.25;93568.41;6072951;23;20025;-90
2023/10/13 03:40:06;;;;;;;4.15;3.25;;;;;;;20.20;51.15;93553.22;6073033;23;20089;-89
2023/10/13 03:42:32;;;;;;;4.03;2.92;;;;;;;20.19;51.26;93563.44;6070316;23;20507;-90
2023/10/13 03:44:57;;;;;;;5.10;3.63;;;;;;;20.22;51.25;93558.19;6069064;23;20462;-90
2023/10/13 03:47:32;;;;;;;4.53;3.53;;;;;;;20.19;51.19;93549.72;6069149;23;20014;-90
2023/10/13 03:50:15;;;;;;;3.50;3.05;;;;;;;20.20;51.33;93556.69;6072616;23;20017;-90
2023/10/13 03:52:41;;;;;;;5.25;3.60;;;;;;;20.20;51.17;93551.19;6076291;23;20022;-90
2023/10/13 03:55:07;;;;;;;4.18;3.50;;;;;;;20.22;51.10;93542.44;6068894;23;20089;-90
2023/10/13 03:57:39;;;;;;;4.30;2.85;;;;;;;20.20;51.14;93562.19;6069580;23;20022;-92
2023/10/13 04:00:09;;;;;;;4.13;2.97;;;;;;;20.20;51.20;93553.94;6094167;23;20061;-90
2023/10/13 04:02:36;;;;;;;3.90;2.95;;;;;;;20.20;51.17;93553.94;6070012;23;20450;-90
2023/10/13 04:05:08;;;;;;;3.75;3.17;;;;;;;20.21;51.18;93551.94;6070150;23;20124;-90
2023/10/13 04:07:39;;;;;;;4.72;3.33;;;;;;;20.20;51.27;93556.69;6072250;23;20089;-90
2023/10/13 04:10:19;;;;;;;3.88;3.38;;;;;;;20.18;51.22;93555.72;6095991;23;20010;-90
2023/10/13 04:15:21;;;;;;;4.57;3.38;;;;;;;20.21;50.96;93551.94;6073415;23;20508;-90
2023/10/13 04:17:48;;;;;;;4.53;3.22;;;;;;;20.20;51.45;93555.94;6071948;23;20018;-90
2023/10/13 04:20:26;;;;;;;5.25;3.13;;;;;;;20.21;51.09;93549.19;6066432;23;20022;-90
2023/10/13 04:25:38;;;;;;;5.03;3.50;;;;;;;20.18;50.95;93559.22;6065143;23;20022;-90
2023/10/13 04:36:16;;;;;;;2.50;2.30;;;;;;;20.20;51.02;93559.44;6068308;23;20055;-91
2023/10/13 04:39:00;;;;;;;3.17;2.67;;;;;;;20.21;50.95;93557.44;6066285;23;20034;-91
2023/10/13 04:41:37;;;;;;;3.70;2.55;;;;;;;20.20;51.20;93547.72;6068674;23;20102;-90
2023/10/13 04:55:09;;;;;;;3.38;2.40;;;;;;;20.28;50.88;93559.59;6067981;23;20362;-90
2023/10/13 04:57:46;;;;;;;2.90;2.05;;;;;;;20.33;50.91;93558.03;6077074;23;20026;-90
2023/10/13 05:02:54;;;;;;;3.30;2.38;;;;;;;20.26;51.04;93555.88;6065254;23;20023;-90
2023/10/13 05:46:49;;;;;;;2.08;1.88;;;;;;;20.27;50.60;93565.59;6068654;23;20045;-91
2023/10/13 06:29:45;;;;;;;4.15;1.70;;;;;;;20.28;50.84;93584.31;6068891;23;20033;-90
2023/10/13 06:32:12;;;;;;;2.30;1.52;;;;;;;20.30;50.63;93595.50;6015549;23;20019;-90
2023/10/13 06:34:42;;;;;;;3.35;1.60;;;;;;;20.31;50.65;93588.75;5989731;23;20336;-91
2023/10/13 06:37:22;;;;;;;1.27;1.15;;;;;;;20.34;50.61;93585.00;6014684;23;20050;-91
2023/10/13 06:39:50;;;;;;;1.83;1.48;;;;;;;20.33;50.69;93593.75;6025963;23;20019;-90
2023/10/13 06:42:16;;;;;;;2.97;1.42;;;;;;;20.30;50.99;93603.75;6014436;23;20019;-90
2023/10/13 06:44:45;;;;;;;1.90;1.30;;;;;;;20.32;50.50;93608.72;6021479;23;20014;-90
2023/10/13 06:47:11;;;;;;;1.70;1.20;;;;;;;20.30;50.75;93614.00;6015573;23;20015;-90
2023/10/13 06:49:38;;;;;;;2.30;1.48;;;;;;;20.29;50.62;93609.75;6022927;23;20035;-90
2023/10/13 06:52:06;;;;;;;1.73;1.27;;;;;;;20.30;50.63;93611.25;6012148;23;20019;-91
2023/10/13 06:54:34;;;;;;;2.17;1.70;;;;;;;20.29;50.70;93618.75;6024794;23;20007;-91
2023/10/13 06:57:00;;;;;;;2.28;1.25;;;;;;;20.30;50.86;93622.22;6013091;23;20093;-91
2023/10/13 06:59:32;;;;;;;1.58;1.13;;;;;;;20.32;50.66;93612.22;5993218;23;20022;-89
2023/10/13 07:02:03;;;;;;;2.03;1.10;;;;;;;20.30;50.69;93628.47;6020556;23;20450;-90
2023/10/13 07:04:29;;;;;;;1.75;1.20;;;;;;;20.33;50.49;93610.94;6011310;23;20025;-91
2023/10/13 07:06:54;;;;;;;1.70;1.30;;;;;;;20.33;50.64;93610.22;6011829;23;20018;-90
2023/10/13 07:12:02;;;;;;;;;;;;;;;20.36;50.51;93620.88;6020291;23;20521;-90
2023/10/13 07:14:28;;;;;;;1.90;1.40;;;;;;;20.37;50.32;93633.38;6012098;23;19924;-90
2023/10/13 07:16:59;;;;;;;4.25;3.13;;;;;;;20.28;50.64;93630.22;6013203;23;20010;-90
2023/10/13 07:19:27;;;;;;;6.47;3.05;;;;;;;20.16;50.94;93630.34;6018290;23;20022;-91
2023/10/13 07:22:03;;;;;;;4.22;3.25;;;;;;;20.18;51.13;93635.31;6019004;23;20014;-90
2023/10/13 07:24:31;;;;;;;9.15;4.40;;;;;;;20.14;50.71;93632.13;6057287;23;20467;-91
2023/10/13 07:27:05;;;;;;;8.40;4.57;;;;;;;20.14;51.35;93635.63;6060847;23;20018;-90
2023/10/13 07:29:33;;;;;;;5.78;3.97;;;;;;;20.18;50.91;93633.31;6057349;23;20471;-91
2023/10/13 07:32:02;;;;;;;9.65;4.82;;;;;;;20.24;51.19;93646.25;6061134;23;20018;-91
2023/10/13 07:34:32;;;;;;;5.63;3.67;;;;;;;20.28;50.86;93641.97;6072049;23;20081;-91
2023/10/13 07:37:07;;;;;;;8.27;4.78;;;;;;;20.28;50.88;93652.94;6093795;23;20006;-90
2023/10/13 07:39:38;;;;;;;5.95;4.20;;;;;;;20.30;50.81;93649.69;6019566;23;20392;-90
2023/10/13 07:42:05;;;;;;;11.65;3.72;;;;;;;20.40;50.47;93642.59;6088799;23;20022;-90
2023/10/13 07:44:34;;;;;;;3.88;2.63;;;;;;;20.34;50.37;93653.63;6070042;23;20109;-91
2023/10/13 07:47:02;;;;;;;7.55;2.83;;;;;;;20.33;50.60;93649.41;6094519;23;20014;-91
2023/10/13 07:49:36;;;;;;;6.93;3.40;;;;;;;20.32;50.85;93647.91;6053844;23;20371;-90
2023/10/13 07:52:14;;;;;;;6.85;2.88;;;;;;;20.36;50.57;93645.59;6042164;23;20458;-90
2023/10/13 07:54:43;;;;;;;5.32;2.80;;;;;;;20.33;50.62;93649.41;6066355;23;20022;-90
2023/10/13 07:57:08;;;;;;;4.00;2.53;;;;;;;20.37;50.56;93646.34;6063540;23;20046;-90
2023/10/13 07:59:36;;;;;;;4.57;2.78;;;;;;;20.37;50.55;93649.84;6041870;23;20029;-90
2023/10/13 08:02:12;;;;;;;5.28;3.00;;;;;;;20.37;50.62;93635.38;6088630;23;20092;-90
2023/10/13 08:04:37;;;;;;;4.28;3.20;;;;;;;20.40;50.51;93640.56;6051821;23;20014;-91
2023/10/13 08:07:13;;;;;;;3.03;2.72;;;;;;;20.40;50.39;93640.56;6048503;23;20062;-91
2023/10/13 08:09:51;;;;;;;4.28;2.88;;;;;;;20.41;50.49;93638.56;6042549;23;20041;-90
2023/10/13 08:12:21;;;;;;;3.33;2.95;;;;;;;20.42;50.49;93640.06;6042168;23;20030;-91
2023/10/13 08:14:47;;;;;;;4.05;3.08;;;;;;;20.42;50.65;93629.06;6056931;23;20033;-91
2023/10/13 08:17:13;;;;;;;3.30;3.00;;;;;;;20.43;50.48;93627.81;6089041;23;20014;-91
2023/10/13 08:19:44;;;;;;;3.58;2.90;;;;;;;20.45;50.55;93631.53;6088170;23;20090;-90
2023/10/13 08:22:23;;;;;;;5.15;3.40;;;;;;;20.45;50.52;93631.53;6065894;23;20097;-90
2023/10/13 08:27:36;;;;;;;4.40;3.20;;;;;;;20.56;50.05;93636.16;6063228;23;20022;-90
2023/10/13 08:30:26;;;;;;;5.25;3.50;;;;;;;20.48;50.48;93638.75;6071017;23;20366;-91
2023/10/13 08:32:54;;;;;;;6.72;3.92;;;;;;;20.53;49.43;93631.69;6068178;23;20014;-90
2023/10/13 08:43:14;;;;;;;6.70;3.83;;;;;;;20.41;49.35;93627.59;6067541;23;20026;-90
2023/10/13 08:48:16;;;;;;;7.90;4.07;;;;;;;20.46;47.51;93635.75;6064188;23;20018;-90
2023/10/13 09:01:48;;;;;;;8.20;3.83;;;;;;;20.34;46.62;93628.91;6069264;23;20037;-91
2023/10/13 09:15:17;;;;;;;9.93;3.72;;;;;;;20.37;45.81;93624.41;6067384;23;20015;-92
2023/10/13 09:17:52;;;;;;;8.90;3.40;;;;;;;20.29;45.84;93616.00;6071729;23;20075;-91
2023/10/13 09:25:36;;;;;;;6.90;4.00;;;;;;;20.28;46.20;93625.47;6068040;23;20014;-90
2023/10/13 09:28:10;;;;;;;6.82;3.95;;;;;;;20.37;45.87;93621.66;6064606;23;20603;-91
2023/10/13 09:30:43;;;;;;;10.38;3.28;;;;;;;20.25;45.69;93623.03;6069425;23;20455;-90
2023/10/13 09:33:08;;;;;;;8.80;4.45;;;;;;;20.31;45.66;93623.72;6066861;23;20023;-90
2023/10/13 09:35:36;;;;;;;6.10;3.22;;;;;;;20.38;45.38;93640.34;6067306;23;20405;-91
2023/10/13 09:38:02;;;;;;;10.68;4.00;;;;;;;20.35;44.85;93624.16;6065007;23;20042;-90
2023/10/13 09:40:37;;;;;;;9.32;4.00;;;;;;;20.37;45.09;93630.63;6067154;23;20041;-90
2023/10/13 09:43:07;;;;;;;7.18;3.70;;;;;;;20.46;44.27;93621.28;6089968;23;20640;-90
2023/10/13 09:45:38;;;;;;;9.37;4.40;;;;;;;20.33;44.92;93612.97;6091694;23;20094;-90
2023/10/13 09:48:06;;;;;;;8.15;3.47;;;;;;;20.33;44.67;93623.94;6067336;23;20029;-90
2023/10/13 09:50:37;;;;;;;8.38;4.00;;;;;;;20.35;44.59;93626.91;6068869;23;20405;-90
2023/10/13 09:53:05;;;;;;;6.80;3.85;;;;;;;20.36;43.87;93625.63;6067558;23;20069;-90
2023/10/13 09:55:39;;;;;;;8.32;3.53;;;;;;;20.33;43.96;93621.94;6091965;23;20025;-90
2023/10/13 09:58:13;;;;;;;5.82;3.45;;;;;;;20.26;44.01;93619.03;6068186;23;20157;-90
2023/10/13 10:00:57;;;;;;;9.02;3.38;;;;;;;20.35;43.79;93627.63;6070135;23;20018;-90
2023/10/13 10:09:10;;;;;;;17.45;11.43;;;;;;;20.33;43.64;93610.22;5973628;24;20040;-90
2023/10/13 10:12:18;;;;;;;13.13;7.07;;;;;;;20.30;44.01;93614.00;5929740;24;20107;-90
2023/10/13 10:15:28;;;;;;;7.97;4.70;;;;;;;20.39;43.81;93619.13;5972824;24;20085;-91
2023/10/13 10:17:54;;;;;;;10.77;4.55;;;;;;;20.42;43.57;93615.34;5972631;24;20020;-91
2023/10/13 10:20:32;;;;;;;7.30;3.30;;;;;;;20.46;43.44;93610.31;5927242;24;20026;-90
2023/10/13 10:22:59;;;;;;;10.98;3.55;;;;;;;20.48;42.92;93605.78;5928971;24;20031;-90
2023/10/13 10:25:34;;;;;;;8.88;3.10;;;;;;;20.41;43.13;93614.59;5927158;24;20019;-90
2023/10/13 10:28:05;;;;;;;8.07;3.50;;;;;;;20.45;42.98;93604.06;5929167;24;20024;-90
2023/10/13 10:30:33;;;;;;;9.32;7.63;;;;;;;20.42;43.05;93605.09;5930990;24;20038;-90
2023/10/13 10:32:59;;;;;;;16.40;8.90;;;;;;;20.45;43.31;93606.81;5931152;24;20087;-91
2023/10/13 10:35:29;;;;;;;13.02;6.75;;;;;;;20.42;43.49;93594.13;5930733;24;20016;-90
2023/10/13 10:38:11;;;;;;;10.07;4.85;;;;;;;20.46;43.19;93594.56;5933679;24;20056;-90
2023/10/13 10:40:51;;;;;;;7.57;4.25;;;;;;;20.48;43.37;93583.81;5936900;24;20027;-91
2023/10/13 10:43:17;;;;;;;5.90;4.10;;;;;;;20.47;43.43;93579.59;5931957;24;20028;-91
2023/10/13 10:45:49;;;;;;;6.88;3.20;;;;;;;20.44;43.51;93585.38;6007204;23;20025;-90
2023/10/13 10:48:21;;;;;;;6.35;3.47;;;;;;;20.37;43.46;93583.94;6069556;23;20437;-90
2023/10/13 10:50:54;;;;;;;11.38;3.75;;;;;;;20.34;44.34;93573.25;6045635;23;20022;-89
2023/10/13 10:53:22;;;;;;;10.82;3.53;;;;;;;20.42;44.18;93568.66;6068223;23;20037;-90
2023/10/13 10:55:48;;;;;;;9.43;3.67;;;;;;;20.50;43.41;93566.81;6067959;23;20469;-91
2023/10/13 10:58:30;;;;;;;5.95;3.15;;;;;;;20.50;43.26;93567.56;6092147;23;20022;-90
2023/10/13 11:01:20;;;;;;;14.18;3.28;;;;;;;20.49;43.43;93563.34;6077548;23;20021;-90
2023/10/13 11:03:58;;;;;;;21.55;3.65;;;;;;;20.48;43.41;93555.59;6094222;23;20374;-91
2023/10/13 11:06:25;;;;;;;9.00;3.15;;;;;;;20.47;43.44;93552.13;6095797;23;20053;-91
2023/10/13 11:09:04;;;;;;;16.63;3.38;;;;;;;20.47;43.93;93549.38;6072878;23;20030;-90
2023/10/13 11:11:36;;;;;;;13.80;3.50;;;;;;;20.57;43.81;93549.00;6071945;23;20021;-91
2023/10/13 11:14:13;;;;;;;7.13;3.15;;;;;;;20.52;43.60;93548.56;6097231;23;20022;-91
2023/10/13 11:16:51;;;;;;;9.65;3.28;;;;;;;20.51;43.83;93532.59;6077837;23;20022;-90
2023/10/13 11:19:20;;;;;;;12.85;4.15;;;;;;;20.63;43.54;93536.66;6078736;23;20029;-90
2023/10/13 11:21:47;;;;;;;12.80;3.08;;;;;;;20.51;43.51;93541.59;6060938;23;20053;-90
2023/10/13 11:24:17;;;;;;;10.73;3.83;;;;;;;20.53;43.35;93530.81;6107756;23;20036;-90
2023/10/13 11:26:49;;;;;;;9.82;3.65;;;;;;;20.53;43.26;93525.31;6083386;23;20107;-90
2023/10/13 11:29:19;;;;;;;11.20;3.58;;;;;;;20.49;43.61;93533.13;6083329;23;20026;-90
2023/10/13 11:31:58;;;;;;;10.00;3.60;;;;;;;20.50;43.65;93528.38;6057915;23;20097;-90
2023/10/13 11:34:23;;;;;;;15.25;4.22;;;;;;;20.59;43.70;93524.47;6053058;23;20442;-90
2023/10/13 11:36:50;;;;;;;9.13;3.85;;;;;;;20.58;44.18;93521.00;6082576;23;20006;-90
2023/10/13 11:39:24;;;;;;;8.95;3.22;;;;;;;20.64;43.80;93520.91;6079454;23;20022;-91
2023/10/13 11:41:53;;;;;;;8.93;4.00;;;;;;;20.64;43.98;93523.66;6080556;23;20085;-91
2023/10/13 11:51:44;;;;;;;13.00;3.40;;;;;;;20.64;44.56;93513.41;6073243;23;20018;-91
2023/10/13 11:54:14;;;;;;;43.50;33.15;;;;;;;20.65;44.38;93509.41;6072806;23;20034;-91
2023/10/13 11:56:39;;;;;;;137.13;78.30;;;;;;;20.73;44.44;93515.03;6046856;23;20014;-88
2023/10/13 11:59:05;;;;;;;152.27;132.80;;;;;;;20.80;43.93;93506.16;6071468;23;20085;-90
2023/10/13 12:07:14;;;;;;;122.35;109.38;;;;;;;20.88;44.19;93493.31;6100955;23;20438;-90
2023/10/13 12:12:23;;;;;;;98.45;74.00;;;;;;;20.81;44.17;93494.66;6096262;23;20076;-89
2023/10/13 12:14:55;;;;;;;20.83;12.95;;;;;;;20.89;43.66;93494.78;6071276;23;20446;-90
2023/10/13 12:17:34;;;;;;;18.95;9.57;;;;;;;20.81;44.19;93494.66;6074511;23;20109;-90
2023/10/13 12:20:09;;;;;;;12.50;7.65;;;;;;;20.90;44.00;93493.53;6078256;23;20022;-90
2023/10/13 12:22:39;;;;;;;130.80;96.85;;;;;;;20.93;44.04;93486.97;6071546;23;20021;-90
2023/10/13 12:25:24;;;;;;;23.65;14.90;;;;;;;20.93;43.49;93483.50;6069674;23;20018;-90
2023/10/13 12:27:56;;;;;;;122.50;96.78;;;;;;;21.01;43.91;93482.31;6098344;23;20022;-90
2023/10/13 12:30:48;;;;;;;18.25;10.57;;;;;;;20.92;44.10;93471.75;6071999;23;20034;-89
2023/10/13 12:33:24;;;;;;;16.77;8.85;;;;;;;20.87;44.99;93469.84;6095131;23;20025;-90
2023/10/13 12:48:55;;;;;;;17.20;7.10;;;;;;;20.74;44.17;93465.06;6077598;23;20017;-90
2023/10/13 12:49:49;;;;;;;10.02;5.43;;;;;;;20.82;44.66;93467.94;6079335;23;20037;-91
2023/10/13 12:52:25;;;;;;;8.75;4.30;;;;;;;20.77;43.79;93449.53;6079501;23;20017;-90
2023/10/13 12:57:25;;;;;;;13.50;5.03;;;;;;;20.86;43.72;93443.63;6073512;23;20025;-90
2023/10/13 12:59:53;;;;;;;7.15;4.82;;;;;;;20.83;43.75;93441.94;6095193;23;20010;-90
2023/10/13 13:02:21;;;;;;;11.40;4.82;;;;;;;20.78;43.75;93437.28;6071351;23;20017;-89
2023/10/13 13:04:51;;;;;;;8.48;4.53;;;;;;;20.87;43.71;93437.59;6070220;23;20025;-90
2023/10/13 13:07:16;;;;;;;7.28;3.97;;;;;;;20.88;44.22;93435.59;6071887;23;20026;-89
2023/10/13 13:09:42;;;;;;;7.78;4.43;;;;;;;20.83;43.99;93430.94;6071046;23;20025;-90
2023/10/13 13:12:07;;;;;;;7.80;4.25;;;;;;;20.85;44.14;93431.16;6069697;23;20030;-89
2023/10/13 13:14:34;;;;;;;8.95;4.75;;;;;;;20.80;43.76;93424.47;6095228;23;20018;-90
2023/10/13 13:17:06;;;;;;;9.00;4.60;;;;;;;20.79;43.72;93425.00;6094027;23;20332;-90
2023/10/13 13:19:38;;;;;;;8.55;4.90;;;;;;;20.82;44.50;93421.97;6098211;23;20030;-90
2023/10/13 13:22:04;;;;;;;10.15;4.40;;;;;;;20.82;44.39;93423.97;6049238;23;20045;-90
2023/10/13 13:24:30;;;;;;;10.25;4.65;;;;;;;20.82;44.28;93413.72;6073940;23;20025;-89
2023/10/13 13:27:05;;;;;;;11.77;4.30;;;;;;;20.82;44.69;93419.22;6073100;23;20021;-90
2023/10/13 13:29:30;;;;;;;7.55;4.55;;;;;;;20.90;43.79;93413.09;6075018;23;20022;-90
2023/10/13 13:31:56;;;;;;;10.63;4.60;;;;;;;20.91;44.05;93403.59;6122453;23;20016;-89
2023/10/13 13:34:22;;;;;;;7.05;3.58;;;;;;;20.88;44.21;93411.63;6048764;23;20033;-91
2023/10/13 13:36:52;;;;;;;7.40;3.88;;;;;;;20.88;43.83;93403.38;6072949;23;20509;-90
2023/10/13 13:39:28;;;;;;;6.20;3.70;;;;;;;20.91;43.33;93398.84;6073039;23;20013;-91
2023/10/13 13:41:56;;;;;;;9.13;3.80;;;;;;;20.96;42.75;93408.25;6051875;23;20025;-90
2023/10/13 13:44:28;;;;;;;4.97;3.00;;;;;;;20.95;43.89;93402.00;6073390;23;20017;-90
2023/10/13 13:46:56;;;;;;;9.75;3.45;;;;;;;20.94;42.93;93392.28;6072535;23;20021;-91
2023/10/13 13:49:29;;;;;;;7.13;3.22;;;;;;;20.96;42.86;93398.00;6046177;23;20026;-90
2023/10/13 13:51:55;;;;;;;10.93;3.72;;;;;;;20.98;42.38;93392.72;6048899;23;20040;-90
2023/10/13 13:54:20;;;;;;;7.20;3.40;;;;;;;20.97;43.16;93398.75;6070165;23;20446;-90
2023/10/13 13:56:47;;;;;;;6.30;3.30;;;;;;;20.98;43.41;93391.97;6045737;23;20237;-91
2023/10/13 13:59:15;;;;;;;5.97;2.92;;;;;;;21.03;42.37;93383.59;6069927;23;20014;-90
2023/10/13 14:01:44;;;;;;;7.78;2.90;;;;;;;21.05;42.81;93388.56;6071223;23;20096;-90
2023/10/13 14:04:10;;;;;;;7.15;3.05;;;;;;;20.99;43.39;93383.19;6070577;23;20045;-91
2023/10/13 14:06:37;;;;;;;7.28;3.08;;;;;;;20.98;43.07;93384.47;6045845;23;20009;-90
2023/10/13 14:09:05;;;;;;;9.35;3.53;;;;;;;21.00;41.57;93372.94;6070811;23;20022;-90
2023/10/13 14:14:12;;;;;;;97.10;75.57;;;;;;;21.05;42.11;93372.81;6073930;23;20489;-90
2023/10/13 14:16:47;;;;;;;45.88;28.60;;;;;;;21.09;41.42;93370.50;6094015;23;20022;-90
2023/10/13 14:19:19;;;;;;;42.97;29.30;;;;;;;21.10;42.26;93369.22;6072267;23;20022;-89
2023/10/13 14:21:44;;;;;;;24.27;14.00;;;;;;;21.11;41.88;93358.97;6071613;23;20017;-90
2023/10/13 14:24:14;;;;;;;20.88;11.10;;;;;;;21.05;41.76;93361.81;6044936;23;20022;-90
2023/10/13 14:26:39;;;;;;;13.63;8.53;;;;;;;21.09;41.35;93350.53;6094827;23;20014;-90
2023/10/13 14:29:07;;;;;;;15.48;7.68;;;;;;;21.10;41.89;93346.50;6068510;23;20021;-89
2023/10/13 14:31:33;;;;;;;11.35;8.18;;;;;;;21.10;41.48;93352.00;6070234;23;20025;-89
2023/10/13 14:33:59;;;;;;;16.25;7.30;;;;;;;21.09;41.91;93337.50;6069556;23;20018;-90
2023/10/13 14:36:28;;;;;;;10.65;7.25;;;;;;;21.08;42.03;93343.53;6069265;23;20454;-90
2023/10/13 14:38:54;;;;;;;11.63;7.18;;;;;;;21.07;42.09;93339.31;6046602;23;20089;-89
2023/10/13 14:41:19;;;;;;;15.15;7.47;;;;;;;21.08;42.08;93340.78;6092514;23;20042;-90
2023/10/13 14:43:49;;;;;;;16.38;8.75;;;;;;;21.06;42.18;93344.06;6093322;23;20663;-90
2023/10/13 14:46:16;;;;;;;10.35;7.13;;;;;;;21.07;42.07;93337.31;6070655;23;20021;-90
2023/10/13 14:48:42;;;;;;;12.50;6.95;;;;;;;21.06;42.24;93335.09;6045728;23;20063;-90
2023/10/13 14:51:16;;;;;;;11.57;6.57;;;;;;;21.05;42.39;93333.59;6068974;23;20018;-90
2023/10/13 14:53:47;;;;;;;9.35;6.07;;;;;;;21.05;42.43;93330.84;6047353;23;20022;-90
2023/10/13 14:56:14;;;;;;;8.82;6.20;;;;;;;21.07;42.42;93323.56;6045563;23;20022;-90
2023/10/13 14:58:42;;;;;;;11.48;6.65;;;;;;;21.07;42.54;93320.81;6070025;23;20022;-90
2023/10/13 15:01:16;;;;;;;9.65;5.78;;;;;;;21.07;42.35;93314.56;6069034;23;20076;-90